sensor_id;sensor_type;location;lat;lon;timestamp;pressure;altitude;pressure_sealevel;temperature;humidity
41573;BME280;27286;47.870;19.006;2023-02-23T00:00:15;99333.50;;;3.00;93.93
41573;BME280;27286;47.870;19.006;2023-02-23T00:02:53;99329.22;;;3.03;93.51
41573;BME280;27286;47.870;19.006;2023-02-23T00:05:21;99338.56;;;3.08;93.11
41573;BME280;27286;47.870;19.006;2023-02-23T00:07:47;99334.25;;;3.10;93.38
41573;BME280;27286;47.870;19.006;2023-02-23T00:10:13;99338.50;;;3.13;93.11
41573;BME280;27286;47.870;19.006;2023-02-23T00:12:40;99329.03;;;3.15;93.30
41573;BME280;27286;47.870;19.006;2023-02-23T00:15:07;99335.88;;;3.16;92.74
41573;BME280;27286;47.870;19.006;2023-02-23T00:17:34;99336.69;;;3.22;92.17
41573;BME280;27286;47.870;19.006;2023-02-23T00:20:03;99331.47;;;3.27;92.05
41573;BME280;27286;47.870;19.006;2023-02-23T00:22:32;99333.13;;;3.29;91.48
41573;BME280;27286;47.870;19.006;2023-02-23T00:24:58;99338.31;;;3.28;91.62
41573;BME280;27286;47.870;19.006;2023-02-23T00:27:24;99336.63;;;3.25;91.78
41573;BME280;27286;47.870;19.006;2023-02-23T00:29:49;99336.66;;;3.24;92.71
41573;BME280;27286;47.870;19.006;2023-02-23T00:32:15;99334.97;;;3.21;92.78
41573;BME280;27286;47.870;19.006;2023-02-23T00:34:46;99339.22;;;3.25;93.08
41573;BME280;27286;47.870;19.006;2023-02-23T00:37:16;99341.72;;;3.28;92.90
41573;BME280;27286;47.870;19.006;2023-02-23T00:39:42;99349.44;;;3.30;92.76
41573;BME280;27286;47.870;19.006;2023-02-23T00:42:08;99345.09;;;3.32;93.14
41573;BME280;27286;47.870;19.006;2023-02-23T00:44:34;99345.97;;;3.31;92.82
41573;BME280;27286;47.870;19.006;2023-02-23T00:47:00;99350.25;;;3.32;92.75
41573;BME280;27286;47.870;19.006;2023-02-23T00:49:26;99342.53;;;3.32;93.04
41573;BME280;27286;47.870;19.006;2023-02-23T00:51:52;99334.88;;;3.27;93.04
41573;BME280;27286;47.870;19.006;2023-02-23T00:54:18;99350.22;;;3.33;93.25
41573;BME280;27286;47.870;19.006;2023-02-23T00:56:44;99352.75;;;3.40;92.75
41573;BME280;27286;47.870;19.006;2023-02-23T00:59:11;99346.69;;;3.42;92.69
41573;BME280;27286;47.870;19.006;2023-02-23T01:01:37;99351.78;;;3.45;92.00
41573;BME280;27286;47.870;19.006;2023-02-23T01:04:04;99356.06;;;3.46;92.70
41573;BME280;27286;47.870;19.006;2023-02-23T01:06:30;99350.03;;;3.49;92.61
41573;BME280;27286;47.870;19.006;2023-02-23T01:08:55;99352.56;;;3.52;92.68
41573;BME280;27286;47.870;19.006;2023-02-23T01:11:24;99346.56;;;3.51;92.45
41573;BME280;27286;47.870;19.006;2023-02-23T01:13:55;99344.00;;;3.53;93.27
41573;BME280;27286;47.870;19.006;2023-02-23T01:16:22;99325.13;;;3.51;92.89
41573;BME280;27286;47.870;19.006;2023-02-23T01:18:50;99340.28;;;3.69;92.02
41573;BME280;27286;47.870;19.006;2023-02-23T01:21:24;99344.50;;;3.75;91.45
41573;BME280;27286;47.870;19.006;2023-02-23T01:23:51;99343.63;;;3.77;91.03
41573;BME280;27286;47.870;19.006;2023-02-23T01:26:31;99340.19;;;3.77;91.50
41573;BME280;27286;47.870;19.006;2023-02-23T01:29:04;99332.41;;;3.80;91.31
41573;BME280;27286;47.870;19.006;2023-02-23T01:31:33;99338.41;;;3.80;91.96
41573;BME280;27286;47.870;19.006;2023-02-23T01:34:00;99332.31;;;3.86;91.82
41573;BME280;27286;47.870;19.006;2023-02-23T01:36:26;99334.84;;;3.89;91.51
41573;BME280;27286;47.870;19.006;2023-02-23T01:38:55;99334.72;;;3.97;91.44
41573;BME280;27286;47.870;19.006;2023-02-23T01:41:26;99332.13;;;3.98;90.87
41573;BME280;27286;47.870;19.006;2023-02-23T01:46:34;99326.16;;;3.95;90.83
41573;BME280;27286;47.870;19.006;2023-02-23T01:49:00;99327.94;;;3.91;90.98
41573;BME280;27286;47.870;19.006;2023-02-23T01:51:30;99332.19;;;3.93;91.60
41573;BME280;27286;47.870;19.006;2023-02-23T01:54:09;99330.50;;;3.92;91.41
41573;BME280;27286;47.870;19.006;2023-02-23T01:56:42;99329.63;;;3.93;91.75
41573;BME280;27286;47.870;19.006;2023-02-23T01:59:11;99336.50;;;3.93;91.48
41573;BME280;27286;47.870;19.006;2023-02-23T02:01:39;99335.69;;;3.91;91.54
41573;BME280;27286;47.870;19.006;2023-02-23T02:04:06;99329.78;;;3.83;92.30
41573;BME280;27286;47.870;19.006;2023-02-23T02:06:34;99329.00;;;3.78;92.89
41573;BME280;27286;47.870;19.006;2023-02-23T02:09:04;99334.19;;;3.76;93.02
41573;BME280;27286;47.870;19.006;2023-02-23T02:11:32;99332.44;;;3.78;92.96
41573;BME280;27286;47.870;19.006;2023-02-23T02:14:16;99329.78;;;3.83;92.54
41573;BME280;27286;47.870;19.006;2023-02-23T02:39:27;99329.19;;;4.18;92.21
41573;BME280;27286;47.870;19.006;2023-02-23T02:47:28;99328.16;;;4.30;91.18
41573;BME280;27286;47.870;19.006;2023-02-23T02:50:05;99334.16;;;4.30;90.94
41573;BME280;27286;47.870;19.006;2023-02-23T02:52:37;99327.34;;;4.26;91.28
41573;BME280;27286;47.870;19.006;2023-02-23T02:55:16;99329.91;;;4.28;91.70
41573;BME280;27286;47.870;19.006;2023-02-23T02:57:44;99331.56;;;4.30;91.70
41573;BME280;27286;47.870;19.006;2023-02-23T03:00:28;99328.97;;;4.32;91.50
41573;BME280;27286;47.870;19.006;2023-02-23T03:06:15;99338.44;;;4.31;91.85
41573;BME280;27286;47.870;19.006;2023-02-23T03:09:16;99336.75;;;4.29;91.58
41573;BME280;27286;47.870;19.006;2023-02-23T03:12:10;99336.75;;;4.29;91.58
41573;BME280;27286;47.870;19.006;2023-02-23T03:24:56;99336.53;;;4.42;91.54
41573;BME280;27286;47.870;19.006;2023-02-23T03:27:53;99346.81;;;4.44;91.12
41573;BME280;27286;47.870;19.006;2023-02-23T03:31:12;99350.25;;;4.43;91.08
41573;BME280;27286;47.870;19.006;2023-02-23T03:37:15;99341.59;;;4.47;91.16
41573;BME280;27286;47.870;19.006;2023-02-23T03:42:56;99337.22;;;4.50;90.18
41573;BME280;27286;47.870;19.006;2023-02-23T03:45:43;99349.19;;;4.55;89.44
41573;BME280;27286;47.870;19.006;2023-02-23T03:48:30;99343.97;;;4.58;88.89
41573;BME280;27286;47.870;19.006;2023-02-23T03:51:17;99333.75;;;4.51;88.60
41573;BME280;27286;47.870;19.006;2023-02-23T03:54:09;99341.44;;;4.56;88.40
41573;BME280;27286;47.870;19.006;2023-02-23T03:56:57;99346.56;;;4.58;88.09
41573;BME280;27286;47.870;19.006;2023-02-23T03:59:52;99347.44;;;4.57;87.58
41573;BME280;27286;47.870;19.006;2023-02-23T04:02:40;99347.50;;;4.53;88.65
41573;BME280;27286;47.870;19.006;2023-02-23T04:05:25;99348.38;;;4.51;89.14
41573;BME280;27286;47.870;19.006;2023-02-23T04:08:13;99347.56;;;4.49;89.67
41573;BME280;27286;47.870;19.006;2023-02-23T04:11:16;99348.50;;;4.45;90.13
41573;BME280;27286;47.870;19.006;2023-02-23T04:14:05;99346.75;;;4.47;90.46
41573;BME280;27286;47.870;19.006;2023-02-23T04:16:32;99352.81;;;4.44;91.22
41573;BME280;27286;47.870;19.006;2023-02-23T04:18:58;99349.44;;;4.41;91.35
41573;BME280;27286;47.870;19.006;2023-02-23T04:21:24;99346.91;;;4.39;91.63
41573;BME280;27286;47.870;19.006;2023-02-23T04:23:49;99357.22;;;4.38;91.79
41573;BME280;27286;47.870;19.006;2023-02-23T04:26:15;99360.72;;;4.34;92.30
41573;BME280;27286;47.870;19.006;2023-02-23T04:28:40;99355.59;;;4.32;93.04
41573;BME280;27286;47.870;19.006;2023-02-23T04:31:06;99357.31;;;4.32;93.00
41573;BME280;27286;47.870;19.006;2023-02-23T04:33:31;99352.09;;;4.35;93.08
41573;BME280;27286;47.870;19.006;2023-02-23T04:35:56;99353.81;;;4.36;92.67
41573;BME280;27286;47.870;19.006;2023-02-23T04:38:22;99355.50;;;4.38;92.44
41573;BME280;27286;47.870;19.006;2023-02-23T04:40:48;99344.44;;;4.32;92.65
41573;BME280;27286;47.870;19.006;2023-02-23T04:43:14;99353.91;;;4.31;92.54
41573;BME280;27286;47.870;19.006;2023-02-23T04:45:40;99350.47;;;4.31;92.44
41573;BME280;27286;47.870;19.006;2023-02-23T04:48:06;99351.28;;;4.33;92.31
41573;BME280;27286;47.870;19.006;2023-02-23T04:50:32;99351.25;;;4.34;91.76
41573;BME280;27286;47.870;19.006;2023-02-23T04:52:57;99355.53;;;4.37;91.90
41573;BME280;27286;47.870;19.006;2023-02-23T04:55:24;99354.66;;;4.36;91.45
41573;BME280;27286;47.870;19.006;2023-02-23T04:57:51;99357.22;;;4.38;91.21
41573;BME280;27286;47.870;19.006;2023-02-23T05:00:17;99354.63;;;4.39;90.73
41573;BME280;27286;47.870;19.006;2023-02-23T05:02:43;99354.56;;;4.42;90.29
41573;BME280;27286;47.870;19.006;2023-02-23T05:05:11;99359.66;;;4.45;89.96
41573;BME280;27286;47.870;19.006;2023-02-23T05:07:37;99343.41;;;4.42;89.19
41573;BME280;27286;47.870;19.006;2023-02-23T05:10:04;99352.75;;;4.47;89.16
41573;BME280;27286;47.870;19.006;2023-02-23T05:12:30;99357.91;;;4.47;89.10
41573;BME280;27286;47.870;19.006;2023-02-23T05:14:56;99357.88;;;4.49;88.58
41573;BME280;27286;47.870;19.006;2023-02-23T05:17:22;99359.56;;;4.50;88.34
41573;BME280;27286;47.870;19.006;2023-02-23T05:19:47;99358.66;;;4.52;88.10
41573;BME280;27286;47.870;19.006;2023-02-23T05:22:13;99355.22;;;4.52;87.96
41573;BME280;27286;47.870;19.006;2023-02-23T05:24:40;99359.50;;;4.55;87.70
41573;BME280;27286;47.870;19.006;2023-02-23T05:27:07;99360.34;;;4.55;87.16
41573;BME280;27286;47.870;19.006;2023-02-23T05:29:33;99337.34;;;4.44;86.44
41573;BME280;27286;47.870;19.006;2023-02-23T05:31:58;99363.78;;;4.56;86.69
41573;BME280;27286;47.870;19.006;2023-02-23T05:34:24;99362.94;;;4.55;87.18
41573;BME280;27286;47.870;19.006;2023-02-23T05:36:49;99365.50;;;4.55;87.32
41573;BME280;27286;47.870;19.006;2023-02-23T05:39:14;99368.06;;;4.57;86.95
41573;BME280;27286;47.870;19.006;2023-02-23T05:41:40;99369.75;;;4.58;87.00
41573;BME280;27286;47.870;19.006;2023-02-23T05:44:05;99374.91;;;4.58;87.22
41573;BME280;27286;47.870;19.006;2023-02-23T05:46:31;99368.84;;;4.60;86.30
41573;BME280;27286;47.870;19.006;2023-02-23T05:48:58;99375.59;;;4.67;85.66
41573;BME280;27286;47.870;19.006;2023-02-23T05:51:25;99370.41;;;4.69;84.99
41573;BME280;27286;47.870;19.006;2023-02-23T05:53:51;99373.81;;;4.71;84.92
41573;BME280;27286;47.870;19.006;2023-02-23T05:56:17;99372.97;;;4.70;84.71
41573;BME280;27286;47.870;19.006;2023-02-23T05:58:53;99377.25;;;4.71;84.59
41573;BME280;27286;47.870;19.006;2023-02-23T06:01:20;99381.47;;;4.75;84.71
41573;BME280;27286;47.870;19.006;2023-02-23T06:03:46;99383.09;;;4.79;84.78
41573;BME280;27286;47.870;19.006;2023-02-23T06:06:12;99396.81;;;4.81;84.85
41573;BME280;27286;47.870;19.006;2023-02-23T06:08:38;99389.13;;;4.78;85.04
41573;BME280;27286;47.870;19.006;2023-02-23T06:11:03;99392.47;;;4.83;85.87
41573;BME280;27286;47.870;19.006;2023-02-23T06:13:30;99395.94;;;4.82;86.51
41573;BME280;27286;47.870;19.006;2023-02-23T06:15:56;99401.94;;;4.83;87.33
41573;BME280;27286;47.870;19.006;2023-02-23T06:18:22;99408.84;;;4.82;87.27
41573;BME280;27286;47.870;19.006;2023-02-23T06:20:47;99413.09;;;4.83;87.48
41573;BME280;27286;47.870;19.006;2023-02-23T06:23:13;99408.78;;;4.87;87.79
41573;BME280;27286;47.870;19.006;2023-02-23T06:25:40;99410.47;;;4.87;88.07
41573;BME280;27286;47.870;19.006;2023-02-23T06:28:06;99413.03;;;4.90;88.12
41573;BME280;27286;47.870;19.006;2023-02-23T06:30:33;99419.81;;;4.94;87.69
41573;BME280;27286;47.870;19.006;2023-02-23T06:32:58;99419.72;;;4.98;87.22
41573;BME280;27286;47.870;19.006;2023-02-23T06:35:24;99422.19;;;5.04;87.10
41573;BME280;27286;47.870;19.006;2023-02-23T06:37:50;99420.44;;;5.06;86.96
41573;BME280;27286;47.870;19.006;2023-02-23T06:40:15;99410.19;;;5.02;87.02
41573;BME280;27286;47.870;19.006;2023-02-23T06:42:41;99427.19;;;5.12;87.55
41573;BME280;27286;47.870;19.006;2023-02-23T06:45:07;99427.94;;;5.17;87.17
41573;BME280;27286;47.870;19.006;2023-02-23T06:47:32;99432.19;;;5.21;86.64
41573;BME280;27286;47.870;19.006;2023-02-23T06:49:58;99430.38;;;5.26;86.05
41573;BME280;27286;47.870;19.006;2023-02-23T06:52:24;99430.28;;;5.31;85.42
41573;BME280;27286;47.870;19.006;2023-02-23T06:54:50;99431.00;;;5.36;85.38
41573;BME280;27286;47.870;19.006;2023-02-23T06:57:16;99430.03;;;5.43;85.01
41573;BME280;27286;47.870;19.006;2023-02-23T06:59:42;99429.03;;;5.49;83.65
41573;BME280;27286;47.870;19.006;2023-02-23T07:02:11;99425.47;;;5.56;81.78
41573;BME280;27286;47.870;19.006;2023-02-23T07:04:37;99437.38;;;5.61;79.52
41573;BME280;27286;47.870;19.006;2023-02-23T07:07:02;99429.47;;;5.69;78.47
41573;BME280;27286;47.870;19.006;2023-02-23T07:09:28;99419.91;;;5.74;77.43
41573;BME280;27286;47.870;19.006;2023-02-23T07:11:53;99428.47;;;5.76;77.10
41573;BME280;27286;47.870;19.006;2023-02-23T07:14:19;99431.78;;;5.81;77.53
41573;BME280;27286;47.870;19.006;2023-02-23T07:16:44;99434.25;;;5.86;77.05
41573;BME280;27286;47.870;19.006;2023-02-23T07:19:10;99435.97;;;5.88;76.82
41573;BME280;27286;47.870;19.006;2023-02-23T07:21:35;99438.47;;;5.93;76.88
41573;BME280;27286;47.870;19.006;2023-02-23T07:24:01;99437.47;;;5.98;76.95
41573;BME280;27286;47.870;19.006;2023-02-23T07:26:29;99442.56;;;6.01;76.12
41573;BME280;27286;47.870;19.006;2023-02-23T07:28:55;99444.25;;;6.02;73.75
41573;BME280;27286;47.870;19.006;2023-02-23T07:31:20;99438.19;;;6.05;74.16
41573;BME280;27286;47.870;19.006;2023-02-23T07:33:45;99444.06;;;6.12;74.21
41573;BME280;27286;47.870;19.006;2023-02-23T07:36:11;99441.31;;;6.18;74.52
41573;BME280;27286;47.870;19.006;2023-02-23T07:38:36;99441.19;;;6.24;74.04
41573;BME280;27286;47.870;19.006;2023-02-23T07:41:03;99445.38;;;6.29;73.47
41573;BME280;27286;47.870;19.006;2023-02-23T07:43:28;99434.03;;;6.35;73.29
41573;BME280;27286;47.870;19.006;2023-02-23T07:45:58;99443.31;;;6.44;73.28
41573;BME280;27286;47.870;19.006;2023-02-23T07:48:24;99442.28;;;6.49;71.89
41573;BME280;27286;47.870;19.006;2023-02-23T07:50:49;99436.28;;;6.49;71.05
41573;BME280;27286;47.870;19.006;2023-02-23T07:53:15;99441.38;;;6.52;70.02
41573;BME280;27286;47.870;19.006;2023-02-23T07:55:40;99444.06;;;6.47;69.33
41573;BME280;27286;47.870;19.006;2023-02-23T07:58:06;99447.56;;;6.46;69.27
41573;BME280;27286;47.870;19.006;2023-02-23T08:00:33;99450.13;;;6.46;69.44
41573;BME280;27286;47.870;19.006;2023-02-23T08:02:58;99448.41;;;6.47;68.65
41573;BME280;27286;47.870;19.006;2023-02-23T08:05:26;99438.81;;;6.50;68.34
41573;BME280;27286;47.870;19.006;2023-02-23T08:07:52;99440.31;;;6.60;69.32
41573;BME280;27286;47.870;19.006;2023-02-23T08:10:18;99447.81;;;6.70;69.73
41573;BME280;27286;47.870;19.006;2023-02-23T08:12:43;99443.31;;;6.78;68.63
41573;BME280;27286;47.870;19.006;2023-02-23T08:15:09;99441.38;;;6.86;66.04
41573;BME280;27286;47.870;19.006;2023-02-23T08:17:36;99446.41;;;6.92;64.38
41573;BME280;27286;47.870;19.006;2023-02-23T08:20:03;99445.34;;;6.99;64.84
41573;BME280;27286;47.870;19.006;2023-02-23T08:22:29;99457.88;;;7.14;64.27
41573;BME280;27286;47.870;19.006;2023-02-23T08:24:54;99450.81;;;7.19;64.43
41573;BME280;27286;47.870;19.006;2023-02-23T08:27:20;99448.28;;;7.18;64.13
41573;BME280;27286;47.870;19.006;2023-02-23T08:29:46;99449.13;;;7.18;63.82
41573;BME280;27286;47.870;19.006;2023-02-23T08:32:11;99452.38;;;7.27;63.66
41573;BME280;27286;47.870;19.006;2023-02-23T08:34:41;99442.63;;;7.35;64.75
41573;BME280;27286;47.870;19.006;2023-02-23T08:37:07;99447.72;;;7.39;62.78
41573;BME280;27286;47.870;19.006;2023-02-23T08:39:34;99451.00;;;7.44;60.66
41573;BME280;27286;47.870;19.006;2023-02-23T08:41:59;99450.78;;;7.52;60.30
41573;BME280;27286;47.870;19.006;2023-02-23T08:44:24;99454.91;;;7.59;60.43
41573;BME280;27286;47.870;19.006;2023-02-23T08:46:50;99457.66;;;7.53;59.90
41573;BME280;27286;47.870;19.006;2023-02-23T08:49:18;99464.75;;;7.46;58.82
41573;BME280;27286;47.870;19.006;2023-02-23T08:51:43;99459.56;;;7.46;59.32
41573;BME280;27286;47.870;19.006;2023-02-23T08:54:11;99466.28;;;7.53;58.23
41573;BME280;27286;47.870;19.006;2023-02-23T08:56:40;99459.91;;;7.65;57.87
41573;BME280;27286;47.870;19.006;2023-02-23T08:59:06;99451.72;;;7.79;57.59
41573;BME280;27286;47.870;19.006;2023-02-23T09:01:32;99462.53;;;7.93;57.61
41573;BME280;27286;47.870;19.006;2023-02-23T09:03:58;99459.75;;;7.99;57.26
41573;BME280;27286;47.870;19.006;2023-02-23T09:06:24;99460.75;;;7.95;57.14
41573;BME280;27286;47.870;19.006;2023-02-23T09:08:50;99462.66;;;7.89;56.23
41573;BME280;27286;47.870;19.006;2023-02-23T09:11:16;99460.97;;;7.88;54.53
41573;BME280;27286;47.870;19.006;2023-02-23T09:13:42;99470.53;;;7.85;55.02
41573;BME280;27286;47.870;19.006;2023-02-23T09:16:08;99462.25;;;7.74;57.05
41573;BME280;27286;47.870;19.006;2023-02-23T09:18:34;99471.91;;;7.68;56.25
41573;BME280;27286;47.870;19.006;2023-02-23T09:21:03;99460.75;;;7.66;55.27
41573;BME280;27286;47.870;19.006;2023-02-23T09:23:32;99467.63;;;7.67;53.92
41573;BME280;27286;47.870;19.006;2023-02-23T09:26:01;99465.88;;;7.67;53.44
41573;BME280;27286;47.870;19.006;2023-02-23T09:28:27;99471.00;;;7.69;53.52
41573;BME280;27286;47.870;19.006;2023-02-23T09:30:55;99459.16;;;7.62;53.84
41573;BME280;27286;47.870;19.006;2023-02-23T09:33:20;99468.47;;;7.67;53.21
41573;BME280;27286;47.870;19.006;2023-02-23T09:35:46;99467.47;;;7.71;53.17
41573;BME280;27286;47.870;19.006;2023-02-23T09:38:11;99471.72;;;7.75;53.40
41573;BME280;27286;47.870;19.006;2023-02-23T09:40:45;99464.53;;;7.83;53.65
41573;BME280;27286;47.870;19.006;2023-02-23T09:43:23;99473.84;;;7.91;54.47
41573;BME280;27286;47.870;19.006;2023-02-23T09:48:27;99457.84;;;8.04;54.18
41573;BME280;27286;47.870;19.006;2023-02-23T09:50:55;99468.16;;;8.07;53.98
41573;BME280;27286;47.870;19.006;2023-02-23T09:53:32;99473.34;;;8.07;52.33
41573;BME280;27286;47.870;19.006;2023-02-23T09:56:04;99469.28;;;7.99;52.62
41573;BME280;27286;47.870;19.006;2023-02-23T09:58:32;99467.56;;;7.98;52.46
41573;BME280;27286;47.870;19.006;2023-02-23T10:03:38;99464.88;;;8.01;53.33
41573;BME280;27286;47.870;19.006;2023-02-23T10:06:11;99469.75;;;8.11;53.30
41573;BME280;27286;47.870;19.006;2023-02-23T10:08:57;99470.41;;;8.18;51.75
41573;BME280;27286;47.870;19.006;2023-02-23T10:11:45;99470.97;;;8.28;51.67
41573;BME280;27286;47.870;19.006;2023-02-23T10:14:25;99469.06;;;8.34;51.87
41573;BME280;27286;47.870;19.006;2023-02-23T10:22:04;99464.00;;;8.58;51.81
41573;BME280;27286;47.870;19.006;2023-02-23T10:24:49;99458.94;;;8.53;51.09
41573;BME280;27286;47.870;19.006;2023-02-23T10:27:19;99463.00;;;8.62;50.53
41573;BME280;27286;47.870;19.006;2023-02-23T10:29:49;99457.44;;;8.72;50.52
41573;BME280;27286;47.870;19.006;2023-02-23T10:32:42;99453.97;;;8.73;50.59
41573;BME280;27286;47.870;19.006;2023-02-23T10:35:16;99456.28;;;8.81;50.19
41573;BME280;27286;47.870;19.006;2023-02-23T10:37:45;99455.28;;;8.85;50.38
41573;BME280;27286;47.870;19.006;2023-02-23T10:40:22;99452.00;;;9.05;50.77
41573;BME280;27286;47.870;19.006;2023-02-23T10:42:50;99452.31;;;9.21;50.11
41573;BME280;27286;47.870;19.006;2023-02-23T10:45:21;99449.72;;;9.21;48.81
41573;BME280;27286;47.870;19.006;2023-02-23T10:48:00;99453.00;;;9.26;49.64
41573;BME280;27286;47.870;19.006;2023-02-23T10:50:29;99444.31;;;9.27;49.58
41573;BME280;27286;47.870;19.006;2023-02-23T10:53:18;99442.78;;;9.21;48.50
41573;BME280;27286;47.870;19.006;2023-02-23T10:56:00;99440.59;;;9.34;49.49
41573;BME280;27286;47.870;19.006;2023-02-23T10:58:26;99433.53;;;9.38;48.52
41573;BME280;27286;47.870;19.006;2023-02-23T11:01:02;99432.84;;;9.32;48.46
41573;BME280;27286;47.870;19.006;2023-02-23T11:03:32;99435.13;;;9.42;48.86
41573;BME280;27286;47.870;19.006;2023-02-23T11:06:00;99430.16;;;9.59;49.47
41573;BME280;27286;47.870;19.006;2023-02-23T11:08:36;99432.56;;;9.63;49.01
41573;BME280;27286;47.870;19.006;2023-02-23T11:11:16;99425.88;;;9.58;48.69
41573;BME280;27286;47.870;19.006;2023-02-23T11:13:47;99423.22;;;9.59;48.58
41573;BME280;27286;47.870;19.006;2023-02-23T11:19:00;99411.34;;;9.76;48.11
41573;BME280;27286;47.870;19.006;2023-02-23T11:21:33;99413.03;;;9.77;47.90
41573;BME280;27286;47.870;19.006;2023-02-23T11:24:21;99407.81;;;9.99;48.09
41573;BME280;27286;47.870;19.006;2023-02-23T11:26:50;99403.59;;;10.18;48.59
41573;BME280;27286;47.870;19.006;2023-02-23T11:29:35;99405.53;;;10.35;47.59
41573;BME280;27286;47.870;19.006;2023-02-23T11:34:35;99397.38;;;10.44;46.44
41573;BME280;27286;47.870;19.006;2023-02-23T11:39:53;99398.38;;;10.40;45.97
41573;BME280;27286;47.870;19.006;2023-02-23T11:42:21;99394.03;;;10.40;46.55
41573;BME280;27286;47.870;19.006;2023-02-23T11:47:19;99388.56;;;10.26;46.63
41573;BME280;27286;47.870;19.006;2023-02-23T11:49:47;99383.63;;;10.18;46.13
41573;BME280;27286;47.870;19.006;2023-02-23T11:52:15;99388.47;;;10.06;46.87
41573;BME280;27286;47.870;19.006;2023-02-23T11:54:50;99381.63;;;10.03;47.57
41573;BME280;27286;47.870;19.006;2023-02-23T11:57:25;99388.72;;;10.00;47.79
41573;BME280;27286;47.870;19.006;2023-02-23T11:59:55;99385.47;;;9.94;47.25
41573;BME280;27286;47.870;19.006;2023-02-23T12:02:26;99383.38;;;9.81;48.16
41573;BME280;27286;47.870;19.006;2023-02-23T12:05:23;99377.53;;;9.52;48.35
41573;BME280;27286;47.870;19.006;2023-02-23T12:10:31;99368.91;;;9.52;48.68
41573;BME280;27286;47.870;19.006;2023-02-23T12:20:49;99358.16;;;9.61;49.56
41573;BME280;27286;47.870;19.006;2023-02-23T12:23:21;99355.25;;;9.69;49.24
41573;BME280;27286;47.870;19.006;2023-02-23T12:25:51;99354.47;;;9.67;49.53
41573;BME280;27286;47.870;19.006;2023-02-23T12:30:53;99350.19;;;9.65;49.37
41573;BME280;27286;47.870;19.006;2023-02-23T12:33:27;99346.75;;;9.65;49.51
41573;BME280;27286;47.870;19.006;2023-02-23T12:41:15;99351.63;;;9.73;49.02
41573;BME280;27286;47.870;19.006;2023-02-23T12:43:57;99349.28;;;9.67;49.83
41573;BME280;27286;47.870;19.006;2023-02-23T12:46:33;99347.00;;;9.59;49.09
41573;BME280;27286;47.870;19.006;2023-02-23T12:49:08;99342.13;;;9.50;49.55
41573;BME280;27286;47.870;19.006;2023-02-23T12:54:14;99341.66;;;9.62;50.44
41573;BME280;27286;47.870;19.006;2023-02-23T12:57:29;99335.25;;;9.71;50.98
41573;BME280;27286;47.870;19.006;2023-02-23T13:02:27;99323.09;;;9.71;50.10
41573;BME280;27286;47.870;19.006;2023-02-23T13:25:59;99306.00;;;9.65;50.13
41573;BME280;27286;47.870;19.006;2023-02-23T13:29:00;99306.53;;;9.74;50.10
41573;BME280;27286;47.870;19.006;2023-02-23T13:31:34;99302.88;;;9.79;49.51
41573;BME280;27286;47.870;19.006;2023-02-23T13:34:01;99302.00;;;9.79;49.93
41573;BME280;27286;47.870;19.006;2023-02-23T13:36:28;99305.34;;;9.82;49.32
41573;BME280;27286;47.870;19.006;2023-02-23T13:47:43;99296.06;;;9.97;49.01
41573;BME280;27286;47.870;19.006;2023-02-23T13:53:00;99291.13;;;9.91;49.42
41573;BME280;27286;47.870;19.006;2023-02-23T13:58:13;99289.50;;;9.67;49.73
41573;BME280;27286;47.870;19.006;2023-02-23T14:00:40;99289.88;;;9.57;49.79
41573;BME280;27286;47.870;19.006;2023-02-23T14:03:21;99287.50;;;9.51;50.39
41573;BME280;27286;47.870;19.006;2023-02-23T14:05:50;99283.16;;;9.52;50.38
41573;BME280;27286;47.870;19.006;2023-02-23T14:08:31;99287.56;;;9.50;50.58
41573;BME280;27286;47.870;19.006;2023-02-23T14:10:59;99279.00;;;9.48;51.63
41573;BME280;27286;47.870;19.006;2023-02-23T14:13:28;99286.78;;;9.48;51.62
41573;BME280;27286;47.870;19.006;2023-02-23T14:16:13;99288.81;;;9.40;50.63
41573;BME280;27286;47.870;19.006;2023-02-23T14:24:13;99298.84;;;9.27;51.23
41573;BME280;27286;47.870;19.006;2023-02-23T14:29:30;99296.41;;;9.22;51.36
41573;BME280;27286;47.870;19.006;2023-02-23T14:39:51;99298.97;;;9.24;52.37
41573;BME280;27286;47.870;19.006;2023-02-23T14:42:23;99294.72;;;9.21;52.51
41573;BME280;27286;47.870;19.006;2023-02-23T14:44:51;99289.47;;;9.23;52.95
41573;BME280;27286;47.870;19.006;2023-02-23T14:47:19;99292.81;;;9.26;53.35
41573;BME280;27286;47.870;19.006;2023-02-23T14:49:52;99295.47;;;9.25;54.25
41573;BME280;27286;47.870;19.006;2023-02-23T14:52:31;99293.72;;;9.25;53.90
41573;BME280;27286;47.870;19.006;2023-02-23T14:55:19;99290.16;;;9.28;53.65
41573;BME280;27286;47.870;19.006;2023-02-23T14:57:46;99288.59;;;9.24;53.23
41573;BME280;27286;47.870;19.006;2023-02-23T15:03:08;99291.47;;;9.16;53.50
41573;BME280;27286;47.870;19.006;2023-02-23T15:05:44;99285.53;;;9.13;54.22
41573;BME280;27286;47.870;19.006;2023-02-23T15:08:16;99284.97;;;9.04;54.49
41573;BME280;27286;47.870;19.006;2023-02-23T15:10:44;99274.75;;;9.00;54.64
41573;BME280;27286;47.870;19.006;2023-02-23T15:13:32;99277.41;;;8.98;54.52
41573;BME280;27286;47.870;19.006;2023-02-23T15:16:04;99276.63;;;8.96;54.58
41573;BME280;27286;47.870;19.006;2023-02-23T15:21:54;99272.53;;;8.89;55.36
41573;BME280;27286;47.870;19.006;2023-02-23T15:24:24;99272.59;;;8.88;55.63
41573;BME280;27286;47.870;19.006;2023-02-23T15:26:52;99258.00;;;8.85;55.30
41573;BME280;27286;47.870;19.006;2023-02-23T15:29:20;99263.25;;;8.84;56.33
41573;BME280;27286;47.870;19.006;2023-02-23T15:31:49;99263.38;;;8.81;57.05
41573;BME280;27286;47.870;19.006;2023-02-23T15:34:18;99257.56;;;8.74;58.30
41573;BME280;27286;47.870;19.006;2023-02-23T15:36:52;99264.59;;;8.70;58.51
41573;BME280;27286;47.870;19.006;2023-02-23T15:39:42;99268.22;;;8.66;59.12
41573;BME280;27286;47.870;19.006;2023-02-23T15:42:14;99258.13;;;8.59;59.31
41573;BME280;27286;47.870;19.006;2023-02-23T15:44:41;99262.50;;;8.57;59.80
41573;BME280;27286;47.870;19.006;2023-02-23T15:47:15;99260.00;;;8.54;60.77
41573;BME280;27286;47.870;19.006;2023-02-23T15:49:43;99256.72;;;8.49;59.48